Terminal Aerodrome Forecast
Issued by NWS

Home | Current Version | Previous Version | Graphics & Text | Print | Product List | Glossary On
Versions: 1 2 3 4 5 6 7 8 9 10 11 12 13 14 15 16 17
000
FTUS43 KMPX 192300 RRA
TAFRNH
TAF
KRNH 192339Z 2000/2024 21010KT P6SM -SHRA BKN060 OVC080
     FM200400 VRB03KT P6SM -SHRA OVC060
     FM201100 VRB02KT P6SM FEW250
     FM202200 07004KT P6SM SCT060=

USA.gov is the U.S. government's official web portal to all federal, state and local government web resources and services.